createdAt,value
2023-04-13T00:00:47.063Z,37.53
2023-04-13T00:03:17.057Z,37.99
2023-04-13T00:05:46.283Z,39.04
2023-04-13T00:08:14.314Z,38.46
2023-04-13T00:10:42.071Z,38.79
2023-04-13T00:13:10.828Z,38.64
2023-04-13T00:15:41.909Z,39.11
2023-04-13T00:18:10.800Z,38.35
2023-04-13T00:20:39.220Z,38.42
2023-04-13T00:23:06.723Z,38.58
2023-04-13T00:25:34.453Z,38.25
2023-04-13T00:28:03.730Z,38.40
2023-04-13T00:30:31.510Z,38.77
2023-04-13T00:32:59.248Z,38.87
2023-04-13T00:35:28.528Z,38.43
2023-04-13T00:37:55.911Z,38.48
2023-04-13T00:40:24.651Z,38.79
2023-04-13T00:42:53.983Z,38.66
2023-04-13T00:45:21.641Z,38.75
2023-04-13T00:47:50.851Z,39.07
2023-04-13T00:50:20.947Z,39.67
2023-04-13T00:52:49.834Z,40.17
2023-04-13T00:55:21.371Z,40.38
2023-04-13T00:57:53.383Z,40.43
2023-04-13T01:00:22.032Z,39.79
2023-04-13T01:02:52.587Z,39.49
2023-04-13T01:05:21.510Z,38.79
2023-04-13T01:08:19.116Z,38.91
2023-04-13T01:11:11.742Z,38.54
2023-04-13T01:14:01.754Z,38.31
2023-04-13T01:16:37.905Z,38.27
2023-04-13T01:19:06.522Z,38.10
2023-04-13T01:21:35.686Z,38.14
2023-04-13T01:24:21.742Z,38.37
2023-04-13T01:26:49.577Z,38.64
2023-04-13T01:29:17.245Z,38.28
2023-04-13T01:31:46.292Z,38.48
2023-04-13T01:34:14.047Z,38.47
2023-04-13T01:36:41.663Z,38.47
2023-04-13T01:39:10.552Z,37.08
2023-04-13T01:41:38.697Z,37.66
2023-04-13T01:44:07.160Z,36.61
2023-04-13T01:46:35.723Z,37.26
2023-04-13T01:49:04.371Z,37.75
2023-04-13T01:51:34.678Z,38.24
2023-04-13T01:54:13.638Z,38.38
2023-04-13T01:56:43.937Z,38.71
2023-04-13T01:59:11.368Z,38.71
2023-04-13T02:01:41.529Z,38.28
2023-04-13T02:04:10.034Z,38.29
2023-04-13T02:06:37.829Z,38.35
2023-04-13T02:09:08.369Z,38.15
2023-04-13T02:11:36.706Z,37.63
2023-04-13T02:14:04.919Z,38.51
2023-04-13T02:16:33.131Z,38.84
2023-04-13T02:19:01.700Z,38.81
2023-04-13T02:21:29.156Z,38.40
2023-04-13T02:23:57.427Z,39.33
2023-04-13T02:26:26.318Z,39.02
2023-04-13T02:28:53.925Z,39.24
2023-04-13T02:31:23.486Z,39.66
2023-04-13T02:33:51.780Z,40.04
2023-04-13T02:36:20.255Z,40.05
2023-04-13T02:38:48.450Z,40.16
2023-04-13T02:41:22.765Z,40.24
2023-04-13T02:43:51.008Z,39.69
2023-04-13T02:46:19.103Z,39.43
2023-04-13T02:48:47.627Z,38.68
2023-04-13T02:51:15.368Z,38.29
2023-04-13T02:53:43.109Z,38.13
2023-04-13T02:56:10.511Z,37.72
2023-04-13T02:58:38.436Z,37.79
2023-04-13T03:01:06.722Z,37.70
2023-04-13T03:03:34.450Z,37.70
2023-04-13T03:06:02.307Z,38.68
2023-04-13T03:08:30.794Z,38.73
2023-04-13T03:10:59.565Z,38.54
2023-04-13T03:13:27.912Z,38.69
2023-04-13T03:15:56.159Z,39.05
2023-04-13T03:18:25.296Z,38.53
2023-04-13T03:20:53.356Z,38.08
2023-04-13T03:23:21.366Z,39.10
2023-04-13T03:25:49.055Z,39.01
2023-04-13T03:28:19.525Z,39.06
2023-04-13T03:30:47.259Z,39.08
2023-04-13T03:33:14.791Z,37.86
2023-04-13T03:35:42.727Z,37.87
2023-04-13T03:38:10.919Z,37.27
2023-04-13T03:40:38.562Z,37.46
2023-04-13T03:43:06.785Z,37.41
2023-04-13T03:45:34.488Z,38.61
2023-04-13T03:48:02.818Z,38.96
2023-04-13T03:50:31.461Z,38.64
2023-04-13T03:52:59.118Z,38.49
2023-04-13T03:55:27.300Z,38.15
2023-04-13T03:57:55.656Z,38.10
2023-04-13T04:00:24.283Z,38.62
2023-04-13T04:02:53.222Z,37.31
2023-04-13T04:05:21.702Z,38.06
2023-04-13T04:07:49.942Z,40.20
2023-04-13T04:10:17.882Z,37.77
2023-04-13T04:12:45.910Z,38.39
2023-04-13T04:15:13.372Z,39.61
2023-04-13T04:17:41.435Z,39.08
2023-04-13T04:20:10.166Z,39.32
2023-04-13T04:22:37.646Z,38.95
2023-04-13T04:25:06.481Z,38.90
2023-04-13T04:27:38.515Z,39.37
2023-04-13T04:30:10.744Z,37.70
2023-04-13T04:32:38.421Z,36.50
2023-04-13T04:35:07.688Z,36.03
2023-04-13T04:37:37.691Z,37.62
2023-04-13T04:40:10.219Z,38.19
2023-04-13T04:42:38.516Z,38.92
2023-04-13T04:45:07.222Z,38.59
2023-04-13T04:47:43.724Z,38.73
2023-04-13T04:50:14.488Z,38.17
2023-04-13T04:52:43.199Z,37.57
2023-04-13T04:55:11.206Z,36.66
2023-04-13T04:57:39.571Z,36.18
2023-04-13T05:00:15.038Z,38.87
2023-04-13T05:02:43.359Z,37.03
2023-04-13T05:05:11.957Z,36.10
2023-04-13T05:07:39.853Z,37.71
2023-04-13T05:10:09.539Z,36.96
2023-04-13T05:12:37.921Z,37.01
2023-04-13T05:15:06.542Z,37.62
2023-04-13T05:17:36.408Z,36.89
2023-04-13T05:20:06.981Z,36.30
2023-04-13T05:22:35.867Z,36.26
2023-04-13T05:25:04.156Z,35.97
2023-04-13T05:27:31.612Z,36.51
2023-04-13T05:29:59.686Z,36.17
2023-04-13T05:32:27.237Z,35.16
2023-04-13T05:34:54.911Z,35.09
2023-04-13T05:37:23.158Z,35.09
2023-04-13T05:39:51.995Z,34.79
2023-04-13T05:42:20.091Z,35.87
2023-04-13T05:44:48.468Z,34.19
2023-04-13T05:47:21.270Z,33.72
2023-04-13T05:49:49.242Z,34.43
2023-04-13T05:52:19.076Z,35.07
2023-04-13T05:54:46.693Z,34.51
2023-04-13T05:57:14.439Z,35.26
2023-04-13T05:59:42.028Z,34.08
2023-04-13T06:02:09.592Z,34.46
2023-04-13T06:04:38.027Z,35.06
2023-04-13T06:07:05.845Z,35.39
2023-04-13T06:09:34.115Z,36.82
2023-04-13T06:12:02.642Z,36.11
2023-04-13T06:14:30.007Z,36.38
2023-04-13T06:16:57.449Z,36.23
2023-04-13T06:19:28.277Z,36.24
2023-04-13T06:21:57.096Z,34.89
2023-04-13T06:24:24.868Z,34.47
2023-04-13T06:26:53.050Z,34.29
2023-04-13T06:29:20.831Z,34.88
2023-04-13T06:31:49.341Z,35.04
2023-04-13T06:34:17.473Z,34.27
2023-04-13T06:36:45.015Z,34.68
2023-04-13T06:39:13.778Z,34.76
2023-04-13T06:41:41.623Z,36.56
2023-04-13T06:44:10.530Z,34.92
2023-04-13T06:46:39.158Z,33.75
2023-04-13T06:49:07.496Z,33.36
2023-04-13T06:51:35.098Z,33.74
2023-04-13T06:54:02.830Z,32.75
2023-04-13T06:56:30.462Z,32.93
2023-04-13T06:59:02.536Z,33.46
2023-04-13T07:01:31.924Z,34.65
2023-04-13T07:03:59.830Z,33.04
2023-04-13T07:06:27.682Z,32.44
2023-04-13T07:08:55.472Z,32.62
2023-04-13T07:11:26.015Z,32.58
2023-04-13T07:13:53.546Z,33.11
2023-04-13T07:16:21.405Z,32.61
2023-04-13T07:18:48.847Z,32.53
2023-04-13T07:21:16.394Z,33.64
2023-04-13T07:23:45.515Z,32.81
2023-04-13T07:26:15.076Z,32.11
2023-04-13T07:28:42.477Z,32.69
2023-04-13T07:31:11.883Z,33.37
2023-04-13T07:33:39.891Z,33.84
2023-04-13T07:36:09.047Z,33.54
2023-04-13T07:38:38.318Z,33.65
2023-04-13T07:41:07.405Z,33.34
2023-04-13T07:43:35.448Z,34.08
2023-04-13T07:46:11.871Z,33.01
2023-04-13T07:48:39.873Z,33.14
2023-04-13T07:51:17.418Z,34.95
2023-04-13T07:53:45.543Z,35.11
2023-04-13T07:56:14.238Z,33.69
2023-04-13T07:58:41.928Z,34.41
2023-04-13T08:01:09.503Z,34.09
2023-04-13T08:03:37.973Z,33.34
2023-04-13T08:06:07.826Z,33.08
2023-04-13T08:08:35.301Z,32.74
2023-04-13T08:11:03.238Z,34.36
2023-04-13T08:13:33.098Z,32.67
2023-04-13T08:16:00.685Z,32.29
2023-04-13T08:18:28.778Z,32.90
2023-04-13T08:20:56.268Z,32.46
2023-04-13T08:23:24.340Z,32.33
2023-04-13T08:25:52.009Z,32.89
2023-04-13T08:28:19.513Z,32.81
2023-04-13T08:30:47.054Z,31.69
2023-04-13T08:33:15.024Z,32.69
2023-04-13T08:35:42.673Z,32.25
2023-04-13T08:38:10.783Z,32.34
2023-04-13T08:40:40.795Z,31.64
2023-04-13T08:43:09.677Z,31.66
2023-04-13T08:45:41.589Z,32.59
2023-04-13T08:48:11.806Z,32.66
2023-04-13T08:50:39.770Z,32.55
2023-04-13T08:53:08.294Z,31.84
2023-04-13T08:55:43.503Z,30.63
2023-04-13T08:58:12.962Z,30.17
2023-04-13T09:00:42.004Z,31.59
2023-04-13T09:03:14.123Z,30.33
2023-04-13T09:05:43.093Z,30.79
2023-04-13T09:08:13.493Z,30.91
2023-04-13T09:10:42.329Z,30.67
2023-04-13T09:13:10.069Z,30.72
2023-04-13T09:15:37.814Z,31.44
2023-04-13T09:18:07.881Z,31.16
2023-04-13T09:20:37.006Z,30.88
2023-04-13T09:23:17.167Z,33.29
2023-04-13T09:25:45.441Z,31.67
2023-04-13T09:28:19.776Z,31.26
2023-04-13T09:30:47.637Z,30.85
2023-04-13T09:33:15.926Z,32.54
2023-04-13T09:35:43.290Z,32.40
2023-04-13T09:38:15.350Z,32.24
2023-04-13T09:40:49.975Z,31.66
2023-04-13T09:43:17.793Z,31.31
2023-04-13T09:45:45.159Z,31.00
2023-04-13T09:48:21.823Z,31.76
2023-04-13T09:51:05.585Z,31.97
2023-04-13T09:53:43.978Z,32.05
2023-04-13T09:56:11.754Z,30.96
2023-04-13T09:58:44.257Z,32.12
2023-04-13T10:01:15.443Z,32.28
2023-04-13T10:03:43.992Z,32.13
2023-04-13T10:06:11.501Z,31.48
2023-04-13T10:08:39.879Z,32.24
2023-04-13T10:11:14.653Z,31.84
2023-04-13T10:13:51.100Z,32.24
2023-04-13T10:16:28.179Z,30.58
2023-04-13T10:19:05.157Z,31.21
2023-04-13T10:21:35.725Z,31.09
2023-04-13T10:24:11.574Z,32.02
2023-04-13T10:26:41.262Z,31.99
2023-04-13T10:29:10.147Z,31.83
2023-04-13T10:31:39.645Z,31.95
2023-04-13T10:34:08.131Z,31.74
2023-04-13T10:36:43.179Z,32.57
2023-04-13T10:39:11.404Z,33.28
2023-04-13T10:41:38.812Z,32.03
2023-04-13T10:44:07.774Z,31.99
2023-04-13T10:46:36.195Z,32.40
2023-04-13T10:49:04.656Z,32.48
2023-04-13T10:51:39.564Z,31.36
2023-04-13T10:54:09.774Z,31.97
2023-04-13T10:56:37.292Z,32.26
2023-04-13T10:59:04.829Z,31.83
2023-04-13T11:01:33.845Z,31.92
2023-04-13T11:04:08.180Z,31.69
2023-04-13T11:06:39.212Z,31.40
2023-04-13T11:09:07.138Z,31.69
2023-04-13T11:11:36.468Z,31.79
2023-04-13T11:14:04.598Z,31.69
2023-04-13T11:16:32.631Z,32.48
2023-04-13T11:19:04.157Z,31.89
2023-04-13T11:21:31.909Z,32.37
2023-04-13T11:24:02.115Z,31.46
2023-04-13T11:26:34.344Z,31.21
2023-04-13T11:29:03.696Z,31.15
2023-04-13T11:31:42.039Z,30.61
2023-04-13T11:34:11.420Z,30.32
2023-04-13T11:36:39.796Z,29.29
2023-04-13T11:39:10.861Z,30.41
2023-04-13T11:41:43.048Z,30.17
2023-04-13T11:44:13.840Z,29.75
2023-04-13T11:46:41.951Z,30.43
2023-04-13T11:49:09.552Z,30.21
2023-04-13T11:51:37.650Z,30.49
2023-04-13T11:54:06.650Z,29.63
2023-04-13T11:56:34.194Z,30.54
2023-04-13T11:59:02.051Z,29.20
2023-04-13T12:01:34.211Z,30.34
2023-04-13T12:04:16.027Z,29.77
2023-04-13T12:06:46.544Z,30.97
2023-04-13T12:09:17.658Z,31.14
2023-04-13T12:11:54.308Z,31.71
2023-04-13T12:14:52.147Z,30.63
2023-04-13T12:17:38.437Z,30.66
2023-04-13T12:20:15.616Z,29.69
2023-04-13T12:25:21.277Z,29.91
2023-04-13T12:27:53.076Z,30.13
2023-04-13T12:30:22.314Z,30.22
2023-04-13T12:32:54.903Z,29.98
2023-04-13T12:35:22.856Z,30.38
2023-04-13T12:37:50.550Z,30.36
2023-04-13T12:40:18.625Z,29.57
2023-04-13T12:42:47.305Z,29.33
2023-04-13T12:45:16.736Z,30.52
2023-04-13T12:47:44.385Z,29.91
2023-04-13T12:50:12.946Z,29.35
2023-04-13T12:52:42.421Z,29.44
2023-04-13T12:55:10.296Z,28.62
2023-04-13T12:57:39.590Z,28.86
2023-04-13T13:00:10.442Z,28.98
2023-04-13T13:02:38.482Z,28.92
2023-04-13T13:05:09.301Z,28.69
2023-04-13T13:07:36.845Z,29.21
2023-04-13T13:10:14.867Z,28.58
2023-04-13T13:12:49.530Z,28.51
2023-04-13T13:15:17.245Z,28.41
2023-04-13T13:17:44.896Z,28.56
2023-04-13T13:20:13.381Z,28.75
2023-04-13T13:22:42.077Z,28.51
2023-04-13T13:25:09.973Z,28.37
2023-04-13T13:28:05.246Z,28.62
2023-04-13T13:30:26.611Z,28.83
2023-04-13T13:32:54.099Z,28.50
2023-04-13T13:35:21.930Z,28.43
2023-04-13T13:37:49.578Z,28.20
2023-04-13T13:40:17.652Z,28.40
2023-04-13T13:42:51.936Z,29.00
2023-04-13T13:45:21.400Z,28.80
2023-04-13T13:47:54.603Z,28.86
2023-04-13T13:50:22.962Z,29.04
2023-04-13T13:53:03.014Z,29.06
2023-04-13T13:55:32.232Z,29.05
2023-04-13T13:57:59.625Z,29.27
2023-04-13T14:00:27.296Z,28.94
2023-04-13T14:02:55.202Z,29.14
2023-04-13T14:05:22.767Z,28.64
2023-04-13T14:07:50.973Z,29.15
2023-04-13T14:10:18.821Z,29.50
2023-04-13T14:12:49.584Z,29.89
2023-04-13T14:15:18.158Z,30.51
2023-04-13T14:17:55.437Z,31.98
2023-04-13T14:20:29.867Z,31.86
2023-04-13T14:22:57.618Z,32.57
2023-04-13T14:25:25.025Z,33.62
2023-04-13T14:27:52.410Z,34.49
2023-04-13T14:30:22.323Z,36.20
2023-04-13T14:32:51.077Z,34.86
2023-04-13T14:35:18.924Z,35.27
2023-04-13T14:37:47.643Z,35.34
2023-04-13T14:40:17.249Z,35.57
2023-04-13T14:42:45.656Z,36.17
2023-04-13T14:45:13.506Z,36.22
2023-04-13T14:47:41.149Z,35.67
2023-04-13T14:50:09.956Z,35.70
2023-04-13T14:52:37.916Z,36.36
2023-04-13T14:55:05.650Z,36.24
2023-04-13T14:57:33.223Z,36.53
2023-04-13T15:00:01.994Z,36.27
2023-04-13T15:02:29.763Z,36.85
2023-04-13T15:04:58.387Z,36.66
2023-04-13T15:07:29.229Z,36.67
2023-04-13T15:09:58.085Z,37.29
2023-04-13T15:12:25.838Z,37.66
2023-04-13T15:14:53.307Z,38.72
2023-04-13T15:17:21.160Z,38.35
2023-04-13T15:19:48.851Z,38.45
2023-04-13T15:22:16.390Z,39.89
2023-04-13T15:24:43.895Z,39.27
2023-04-13T15:27:11.646Z,39.32
2023-04-13T15:29:39.062Z,39.41
2023-04-13T15:32:06.701Z,40.83
2023-04-13T15:34:34.461Z,40.70
2023-04-13T15:37:01.866Z,40.03
2023-04-13T15:39:29.292Z,42.36
2023-04-13T15:41:57.879Z,42.13
2023-04-13T15:44:25.235Z,42.69
2023-04-13T15:46:52.649Z,44.03
2023-04-13T15:49:20.564Z,43.41
2023-04-13T15:51:48.027Z,43.08
2023-04-13T15:54:15.506Z,44.11
2023-04-13T15:56:44.209Z,44.62
2023-04-13T15:59:11.714Z,45.42
2023-04-13T16:01:49.581Z,45.21
2023-04-13T16:04:17.589Z,44.85
2023-04-13T16:06:45.060Z,44.35
2023-04-13T16:09:12.493Z,45.58
2023-04-13T16:11:40.288Z,45.25
2023-04-13T16:14:08.892Z,44.95
2023-04-13T16:16:46.874Z,45.48
2023-04-13T16:19:18.117Z,45.78
2023-04-13T16:21:47.096Z,45.78
2023-04-13T16:24:14.972Z,46.76
2023-04-13T16:26:42.833Z,47.02
2023-04-13T16:29:10.284Z,47.62
2023-04-13T16:31:38.009Z,49.11
2023-04-13T16:34:22.137Z,47.51
2023-04-13T16:36:53.151Z,48.14
2023-04-13T16:39:21.933Z,48.40
2023-04-13T16:41:49.419Z,47.80
2023-04-13T16:44:17.205Z,47.82
2023-04-13T16:46:44.637Z,48.35
2023-04-13T16:49:12.546Z,48.22
2023-04-13T16:51:40.255Z,47.55
2023-04-13T16:54:07.698Z,48.11
2023-04-13T16:56:35.067Z,48.17
2023-04-13T16:59:03.681Z,49.04
2023-04-13T17:01:31.337Z,49.28
2023-04-13T17:03:58.897Z,49.96
2023-04-13T17:06:27.326Z,50.72
2023-04-13T17:08:54.823Z,50.91
2023-04-13T17:11:23.085Z,50.99
2023-04-13T17:13:51.475Z,51.43
2023-04-13T17:16:19.070Z,51.56
2023-04-13T17:18:46.509Z,51.83
2023-04-13T17:21:14.502Z,51.75
2023-04-13T17:23:43.056Z,52.18
2023-04-13T17:26:10.477Z,52.28
2023-04-13T17:28:38.429Z,51.93
2023-04-13T17:31:07.673Z,51.50
2023-04-13T17:33:35.225Z,51.54
2023-04-13T17:36:02.929Z,51.25
2023-04-13T17:38:30.295Z,51.25
2023-04-13T17:40:57.831Z,50.97
2023-04-13T17:43:25.520Z,51.93
2023-04-13T17:45:53.112Z,51.49
2023-04-13T17:48:20.719Z,51.56
2023-04-13T17:50:49.580Z,51.74
2023-04-13T17:53:17.364Z,52.31
2023-04-13T17:55:44.817Z,52.08
2023-04-13T17:58:12.766Z,52.14
2023-04-13T18:00:40.264Z,52.26
2023-04-13T18:03:09.271Z,52.19
2023-04-13T18:05:41.967Z,52.44
2023-04-13T18:08:09.904Z,52.07
2023-04-13T18:10:37.678Z,51.40
2023-04-13T18:13:05.176Z,51.08
2023-04-13T18:15:32.883Z,50.93
2023-04-13T18:18:00.544Z,51.02
2023-04-13T18:20:28.236Z,50.82
2023-04-13T18:22:56.365Z,50.90
2023-04-13T18:25:24.014Z,51.32
2023-04-13T18:27:51.583Z,50.95
2023-04-13T18:30:19.954Z,50.93
2023-04-13T18:32:51.424Z,50.84
2023-04-13T18:35:19.390Z,51.25
2023-04-13T18:37:46.918Z,50.84
2023-04-13T18:40:14.406Z,50.49
2023-04-13T18:42:42.759Z,50.60
2023-04-13T18:45:10.907Z,51.22
2023-04-13T18:47:39.018Z,51.88
2023-04-13T18:50:07.658Z,51.74
2023-04-13T18:52:35.322Z,51.60
2023-04-13T18:55:03.475Z,51.83
2023-04-13T18:57:31.207Z,51.28
2023-04-13T18:59:58.647Z,51.07
2023-04-13T19:02:26.545Z,50.36
2023-04-13T19:04:54.448Z,50.35
2023-04-13T19:07:22.139Z,50.59
2023-04-13T19:09:52.023Z,50.76
2023-04-13T19:12:19.835Z,50.78
2023-04-13T19:14:47.440Z,51.47
2023-04-13T19:17:16.482Z,50.90
2023-04-13T19:19:44.306Z,50.78
2023-04-13T19:22:12.347Z,50.37
2023-04-13T19:24:40.426Z,50.29
2023-04-13T19:27:08.321Z,50.92
2023-04-13T19:29:36.852Z,51.22
2023-04-13T19:32:04.279Z,51.13
2023-04-13T19:34:32.826Z,51.41
2023-04-13T19:37:00.249Z,51.75
2023-04-13T19:39:27.912Z,51.32
2023-04-13T19:41:55.783Z,51.66
2023-04-13T19:44:23.408Z,51.49
2023-04-13T19:46:50.835Z,51.31
2023-04-13T19:49:18.630Z,51.54
2023-04-13T19:51:46.122Z,51.53
2023-04-13T19:54:13.915Z,51.49
2023-04-13T19:56:42.314Z,51.39
2023-04-13T19:59:09.996Z,51.28
2023-04-13T20:01:37.827Z,51.56
2023-04-13T20:04:06.314Z,51.01
2023-04-13T20:06:34.356Z,51.21
2023-04-13T20:09:08.814Z,50.21
2023-04-13T20:11:36.530Z,49.95
2023-04-13T20:14:04.966Z,50.22
2023-04-13T20:16:32.449Z,50.30
2023-04-13T20:19:00.265Z,50.28
2023-04-13T20:21:31.032Z,50.78
2023-04-13T20:23:59.518Z,50.17
2023-04-13T20:26:29.967Z,51.32
2023-04-13T20:29:01.271Z,50.30
2023-04-13T20:31:32.840Z,49.43
2023-04-13T20:34:03.038Z,49.96
2023-04-13T20:36:31.346Z,49.55
2023-04-13T20:39:01.543Z,49.91
2023-04-13T20:41:34.859Z,50.41
2023-04-13T20:44:03.091Z,50.31
2023-04-13T20:46:37.747Z,50.20
2023-04-13T20:49:05.717Z,51.49
2023-04-13T20:51:33.795Z,52.29
2023-04-13T20:54:02.710Z,51.94
2023-04-13T20:56:30.923Z,52.88
2023-04-13T20:58:58.394Z,53.27
2023-04-13T21:01:25.975Z,54.11
2023-04-13T21:03:53.769Z,55.71
2023-04-13T21:06:22.937Z,56.63
2023-04-13T21:08:52.755Z,57.13
2023-04-13T21:11:21.445Z,58.19
2023-04-13T21:13:48.845Z,58.07
2023-04-13T21:16:16.445Z,57.71
2023-04-13T21:18:44.288Z,58.36
2023-04-13T21:21:11.793Z,59.60
2023-04-13T21:23:54.788Z,60.60
2023-04-13T21:26:22.710Z,61.14
2023-04-13T21:28:50.130Z,61.46
2023-04-13T21:31:17.576Z,61.73
2023-04-13T21:33:45.766Z,64.39
2023-04-13T21:38:44.235Z,62.20
2023-04-13T21:41:19.888Z,61.33
2023-04-13T21:43:47.472Z,60.26
2023-04-13T21:46:15.817Z,63.18
2023-04-13T21:48:43.504Z,64.22
2023-04-13T21:51:11.558Z,63.61
2023-04-13T21:53:39.245Z,64.11
2023-04-13T21:56:06.915Z,64.77
2023-04-13T21:58:42.477Z,63.96
2023-04-13T22:01:11.668Z,64.71
2023-04-13T22:03:41.299Z,63.67
2023-04-13T22:06:10.176Z,63.20
2023-04-13T22:08:38.217Z,62.95
2023-04-13T22:11:06.582Z,63.15
2023-04-13T22:13:34.106Z,62.27
2023-04-13T22:16:01.626Z,61.70
2023-04-13T22:18:29.309Z,61.08
2023-04-13T22:20:58.806Z,60.50
2023-04-13T22:23:26.793Z,60.91
2023-04-13T22:26:01.655Z,61.22
2023-04-13T22:28:30.984Z,61.29
2023-04-13T22:31:06.452Z,59.83
2023-04-13T22:33:36.151Z,60.21
2023-04-13T22:36:04.607Z,59.01
2023-04-13T22:38:32.082Z,59.48
2023-04-13T22:40:59.504Z,58.98
2023-04-13T22:43:27.325Z,59.46
2023-04-13T22:45:58.416Z,58.82
2023-04-13T22:48:27.740Z,58.35
2023-04-13T22:50:55.766Z,59.25
2023-04-13T22:53:23.154Z,59.98
2023-04-13T22:55:50.982Z,60.56
2023-04-13T22:58:18.630Z,61.19
2023-04-13T23:00:46.007Z,60.24
2023-04-13T23:03:13.720Z,60.02
2023-04-13T23:05:41.554Z,60.03
2023-04-13T23:08:08.945Z,60.03
2023-04-13T23:10:36.664Z,59.44
2023-04-13T23:13:04.779Z,59.51
2023-04-13T23:15:32.314Z,58.87
2023-04-13T23:18:02.508Z,58.88
2023-04-13T23:20:30.594Z,60.67
2023-04-13T23:22:58.078Z,59.80
2023-04-13T23:25:25.589Z,58.26
2023-04-13T23:27:53.243Z,57.77
2023-04-13T23:30:20.961Z,57.36
2023-04-13T23:32:48.409Z,57.34
2023-04-13T23:35:16.295Z,57.11
2023-04-13T23:37:45.345Z,57.09
2023-04-13T23:40:12.915Z,55.73
2023-04-13T23:42:40.853Z,55.81
2023-04-13T23:45:08.898Z,56.04
2023-04-13T23:47:36.354Z,54.97
2023-04-13T23:50:04.255Z,55.60
2023-04-13T23:52:31.714Z,54.44
2023-04-13T23:54:59.165Z,54.46
2023-04-13T23:57:26.869Z,54.93
2023-04-13T23:59:57.491Z,55.45
